Time;durP1;ratioP1;P1;durP2;ratioP2;P2;SDS_P1;SDS_P2;PMS_P1;PMS_P2;Temp;Humidity;BMP_temperature;BMP_pressure;BME280_temperature;BME280_humidity;BME280_pressure;Samples;Min_cycle;Max_cycle;Signal;HPM_P1;HPM_P2
2021/03/17 00:01:05;;;;;;;;;2.50;1.75;;;;;;;;5019810;28;11552;-75
2021/03/17 00:03:32;;;;;;;;;6.50;5.50;;;;;;;;5021266;28;11496;-73
2021/03/17 00:05:59;;;;;;;;;6.00;4.75;;;;;;;;5019902;28;11478;-77
2021/03/17 00:08:26;;;;;;;;;3.50;2.75;;;;;;;;5023027;28;11628;-74
2021/03/17 00:10:55;;;;;;;;;17.00;12.50;;;;;;;;5018549;28;12306;-75
2021/03/17 00:13:23;;;;;;;;;5.50;5.25;;;;;;;;5022016;28;11510;-74
2021/03/17 00:15:52;;;;;;;;;8.75;5.25;;;;;;;;5019200;28;11508;-73
2021/03/17 00:18:19;;;;;;;;;7.50;5.25;;;;;;;;5022091;28;11510;-73
2021/03/17 00:20:46;;;;;;;;;9.00;6.25;;;;;;;;5021845;28;11536;-77
2021/03/17 00:23:13;;;;;;;;;3.75;3.00;;;;;;;;5019989;28;11284;-76
2021/03/17 00:25:41;;;;;;;;;11.00;11.00;;;;;;;;5020126;28;11477;-72
2021/03/17 00:28:09;;;;;;;;;6.25;3.00;;;;;;;;5021044;28;11612;-78
2021/03/17 00:30:37;;;;;;;;;9.25;6.50;;;;;;;;5020080;28;11468;-80
2021/03/17 00:33:08;;;;;;;;;5.50;5.25;;;;;;;;5019485;28;11512;-81
2021/03/17 00:35:35;;;;;;;;;9.00;5.75;;;;;;;;5020071;28;11541;-79
2021/03/17 00:38:02;;;;;;;;;7.75;4.50;;;;;;;;5020414;28;12316;-76
2021/03/17 00:40:29;;;;;;;;;8.50;8.50;;;;;;;;5021658;28;11486;-75
2021/03/17 00:42:56;;;;;;;;;2.00;2.00;;;;;;;;5021922;28;11463;-75
2021/03/17 00:45:23;;;;;;;;;10.00;9.50;;;;;;;;5017863;28;11139;-80
2021/03/17 00:47:50;;;;;;;;;10.75;7.50;;;;;;;;5023502;28;11546;-74
2021/03/17 00:50:18;;;;;;;;;40.25;33.00;;;;;;;;5020416;28;11496;-73
2021/03/17 00:52:46;;;;;;;;;15.75;10.75;;;;;;;;5019726;28;11702;-78
2021/03/17 00:55:14;;;;;;;;;7.00;7.00;;;;;;;;5020164;28;12345;-75
2021/03/17 00:57:41;;;;;;;;;6.00;4.00;;;;;;;;5020239;28;11597;-74
2021/03/17 01:00:10;;;;;;;;;2.75;2.75;;;;;;;;5021085;28;11146;-75
2021/03/17 01:02:37;;;;;;;;;7.50;5.50;;;;;;;;5020461;28;11247;-74
2021/03/17 01:05:05;;;;;;;;;5.00;5.00;;;;;;;;5020168;28;11492;-74
2021/03/17 01:07:32;;;;;;;;;6.50;5.00;;;;;;;;5020283;28;11514;-74
2021/03/17 01:09:59;;;;;;;;;2.50;2.50;;;;;;;;5020515;28;11542;-74
2021/03/17 01:12:26;;;;;;;;;5.25;5.00;;;;;;;;5021252;28;11294;-76
2021/03/17 01:14:53;;;;;;;;;5.00;5.00;;;;;;;;5020547;28;12168;-82
2021/03/17 01:17:20;;;;;;;;;6.25;2.50;;;;;;;;5023766;28;11473;-80
2021/03/17 01:19:47;;;;;;;;;6.75;3.00;;;;;;;;5024016;28;11264;-74
2021/03/17 01:22:14;;;;;;;;;4.00;2.50;;;;;;;;5027495;28;11264;-73
2021/03/17 01:24:42;;;;;;;;;8.50;8.50;;;;;;;;5021007;28;11181;-74
2021/03/17 01:27:09;;;;;;;;;9.25;6.75;;;;;;;;5023747;28;11471;-77
2021/03/17 01:29:36;;;;;;;;;6.00;3.00;;;;;;;;5021120;28;11497;-75
2021/03/17 01:32:03;;;;;;;;;8.75;6.50;;;;;;;;5024528;28;12058;-75
2021/03/17 01:34:30;;;;;;;;;4.00;4.00;;;;;;;;5024859;28;11494;-77
2021/03/17 01:36:57;;;;;;;;;4.00;3.75;;;;;;;;5021817;28;11171;-76
2021/03/17 01:39:24;;;;;;;;;8.75;3.00;;;;;;;;5023769;28;11512;-74
2021/03/17 01:41:52;;;;;;;;;13.75;12.50;;;;;;;;5024324;28;11188;-77
2021/03/17 01:44:18;;;;;;;;;13.75;13.00;;;;;;;;5023538;28;11614;-76
2021/03/17 01:46:45;;;;;;;;;25.25;20.75;;;;;;;;5022808;28;11557;-73
2021/03/17 01:49:12;;;;;;;;;23.50;20.50;;;;;;;;5025386;28;11711;-72
2021/03/17 01:51:39;;;;;;;;;15.75;10.00;;;;;;;;5023649;28;11562;-73
2021/03/17 01:54:06;;;;;;;;;9.50;9.50;;;;;;;;5023911;28;11622;-73
2021/03/17 01:56:33;;;;;;;;;7.00;6.50;;;;;;;;5024382;28;11203;-73
2021/03/17 01:59:02;;;;;;;;;7.25;7.25;;;;;;;;5020652;28;11491;-78
2021/03/17 02:01:29;;;;;;;;;15.50;11.25;;;;;;;;5024588;28;11604;-73
2021/03/17 02:03:56;;;;;;;;;6.50;4.50;;;;;;;;5021960;28;11650;-73
2021/03/17 02:06:23;;;;;;;;;5.50;2.75;;;;;;;;5021370;28;11501;-82
2021/03/17 02:08:50;;;;;;;;;13.25;12.75;;;;;;;;5024445;28;11246;-74
2021/03/17 02:11:17;;;;;;;;;8.00;8.00;;;;;;;;5022396;28;11548;-73
2021/03/17 02:14:08;;;;;;;;;2.25;2.25;;;;;;;;5023904;28;11531;-71
2021/03/17 02:16:39;;;;;;;;;11.25;11.25;;;;;;;;5021072;28;11176;-73
2021/03/17 02:19:31;;;;;;;;;3.50;3.00;;;;;;;;5023210;28;11521;-80
2021/03/17 02:22:42;;;;;;;;;11.50;6.50;;;;;;;;4997889;28;11251;-75
2021/03/17 02:25:25;;;;;;;;;7.00;5.25;;;;;;;;5008196;28;11190;-74
2021/03/17 02:28:14;;;;;;;;;4.00;4.00;;;;;;;;5022301;28;11242;-76
2021/03/17 02:31:04;;;;;;;;;2.00;2.00;;;;;;;;5021976;28;11471;-80
2021/03/17 02:33:46;;;;;;;;;6.00;2.75;;;;;;;;5022003;28;11098;-78
2021/03/17 02:36:16;;;;;;;;;9.50;5.50;;;;;;;;5021903;28;11163;-74
2021/03/17 02:38:47;;;;;;;;;2.75;1.00;;;;;;;;5019878;28;11380;-72
2021/03/17 02:41:19;;;;;;;;;1.25;1.25;;;;;;;;5023764;28;11098;-71
2021/03/17 02:43:48;;;;;;;;;2.50;2.25;;;;;;;;5033182;28;11124;-74
2021/03/17 02:46:16;;;;;;;;;7.00;3.00;;;;;;;;5022519;28;11090;-74
2021/03/17 02:48:47;;;;;;;;;2.00;1.00;;;;;;;;5024643;28;10956;-74
2021/03/17 02:51:19;;;;;;;;;4.75;3.00;;;;;;;;5024353;28;10930;-74
2021/03/17 02:53:47;;;;;;;;;4.50;4.00;;;;;;;;5023298;28;11147;-73
2021/03/17 02:56:15;;;;;;;;;1.75;1.75;;;;;;;;5020754;28;11011;-73
2021/03/17 02:58:44;;;;;;;;;1.00;1.00;;;;;;;;5021723;28;10942;-79
2021/03/17 03:01:14;;;;;;;;;0.50;0.50;;;;;;;;5020995;28;11033;-79
2021/03/17 03:03:43;;;;;;;;;0.75;0.75;;;;;;;;5022132;28;11047;-75
2021/03/17 03:06:10;;;;;;;;;0.25;0.00;;;;;;;;5024669;28;10917;-78
2021/03/17 03:08:39;;;;;;;;;1.00;1.00;;;;;;;;5015524;28;10948;-74
2021/03/17 03:11:08;;;;;;;;;2.75;2.75;;;;;;;;5024017;28;10858;-76
2021/03/17 03:13:36;;;;;;;;;1.25;0.00;;;;;;;;5019559;28;11924;-77
2021/03/17 03:16:03;;;;;;;;;1.25;1.25;;;;;;;;5022259;28;10857;-76
2021/03/17 03:18:34;;;;;;;;;2.25;1.25;;;;;;;;5020121;28;10970;-81
2021/03/17 03:21:02;;;;;;;;;1.00;0.00;;;;;;;;5023117;28;11101;-77
2021/03/17 03:23:30;;;;;;;;;2.00;2.00;;;;;;;;5024711;28;10917;-79
2021/03/17 03:25:58;;;;;;;;;1.75;1.75;;;;;;;;5019934;28;10943;-74
2021/03/17 03:28:25;;;;;;;;;2.50;2.50;;;;;;;;5022344;28;10983;-72
2021/03/17 03:30:54;;;;;;;;;1.00;1.00;;;;;;;;5020226;28;11131;-72
2021/03/17 03:33:23;;;;;;;;;5.25;2.00;;;;;;;;5024188;28;11109;-73
2021/03/17 03:35:50;;;;;;;;;2.75;2.00;;;;;;;;5020020;28;10992;-78
2021/03/17 03:38:19;;;;;;;;;1.50;1.50;;;;;;;;5021580;28;11067;-78
2021/03/17 03:40:48;;;;;;;;;4.25;2.25;;;;;;;;5023127;28;12945;-74
2021/03/17 03:43:15;;;;;;;;;2.00;2.00;;;;;;;;5021086;28;11211;-77
2021/03/17 03:45:42;;;;;;;;;2.00;2.00;;;;;;;;5021483;28;11087;-76
2021/03/17 03:48:09;;;;;;;;;4.50;4.50;;;;;;;;5017945;28;11856;-75
2021/03/17 03:50:39;;;;;;;;;2.00;2.00;;;;;;;;5022298;28;11111;-78
2021/03/17 03:53:12;;;;;;;;;4.00;1.50;;;;;;;;5038284;28;11168;-74
2021/03/17 03:55:49;;;;;;;;;5.00;5.00;;;;;;;;5021837;28;11080;-74
2021/03/17 03:58:27;;;;;;;;;5.00;5.00;;;;;;;;5019098;28;11294;-73
2021/03/17 04:00:57;;;;;;;;;1.25;1.25;;;;;;;;5018485;28;11454;-73
2021/03/17 04:03:25;;;;;;;;;6.25;3.00;;;;;;;;5022602;28;11010;-75
2021/03/17 04:05:54;;;;;;;;;3.00;3.00;;;;;;;;5021549;28;11963;-73
2021/03/17 04:08:23;;;;;;;;;5.75;5.75;;;;;;;;5017171;28;11176;-74
2021/03/17 04:10:57;;;;;;;;;5.25;5.25;;;;;;;;5022724;28;11149;-76
2021/03/17 04:13:26;;;;;;;;;2.00;2.00;;;;;;;;5020872;28;11172;-78
2021/03/17 04:15:56;;;;;;;;;6.25;5.75;;;;;;;;5019285;28;11092;-76
2021/03/17 04:18:28;;;;;;;;;6.50;6.00;;;;;;;;5021663;28;11528;-74
2021/03/17 04:20:58;;;;;;;;;6.00;6.00;;;;;;;;5022396;28;11494;-75
2021/03/17 04:23:27;;;;;;;;;3.50;1.25;;;;;;;;5012268;28;11484;-74
2021/03/17 04:25:56;;;;;;;;;1.75;1.75;;;;;;;;5014944;28;11993;-77
2021/03/17 04:28:25;;;;;;;;;2.75;2.75;;;;;;;;5021883;28;11059;-73
2021/03/17 04:30:53;;;;;;;;;2.00;2.00;;;;;;;;5034993;28;11159;-73
2021/03/17 04:33:21;;;;;;;;;4.75;4.00;;;;;;;;5022611;28;11490;-75
2021/03/17 04:35:48;;;;;;;;;0.50;0.50;;;;;;;;5020930;28;11845;-73
2021/03/17 04:38:15;;;;;;;;;0.00;0.00;;;;;;;;5023272;28;11078;-74
2021/03/17 04:40:43;;;;;;;;;0.00;0.00;;;;;;;;5018305;28;11751;-75
2021/03/17 04:43:13;;;;;;;;;0.25;0.25;;;;;;;;5019231;28;11094;-74
2021/03/17 04:45:41;;;;;;;;;1.00;1.00;;;;;;;;5019850;28;11147;-77
2021/03/17 04:48:09;;;;;;;;;5.00;5.00;;;;;;;;5021159;28;11216;-78
2021/03/17 04:50:36;;;;;;;;;3.25;3.25;;;;;;;;5022100;28;12282;-75
2021/03/17 04:53:03;;;;;;;;;4.00;4.00;;;;;;;;5022382;28;11460;-76
2021/03/17 04:55:30;;;;;;;;;8.75;2.50;;;;;;;;5019492;28;12270;-75
2021/03/17 04:57:58;;;;;;;;;5.00;3.00;;;;;;;;5020170;28;12312;-73
2021/03/17 05:00:27;;;;;;;;;3.50;2.25;;;;;;;;5018843;28;11460;-74
2021/03/17 05:02:57;;;;;;;;;7.75;4.00;;;;;;;;5020415;28;11577;-72
2021/03/17 05:05:25;;;;;;;;;10.00;9.50;;;;;;;;5020149;28;11519;-74
2021/03/17 05:07:53;;;;;;;;;5.00;3.25;;;;;;;;5021092;28;11462;-77
2021/03/17 05:10:22;;;;;;;;;1.25;1.25;;;;;;;;5022974;28;11480;-78
2021/03/17 05:12:49;;;;;;;;;5.75;5.75;;;;;;;;5021640;28;11465;-76
2021/03/17 05:15:16;;;;;;;;;11.50;10.00;;;;;;;;5019903;28;11493;-73
2021/03/17 05:17:46;;;;;;;;;10.25;5.00;;;;;;;;5024617;28;11533;-74
2021/03/17 05:20:16;;;;;;;;;6.75;5.50;;;;;;;;5021149;28;11516;-74
2021/03/17 05:22:43;;;;;;;;;5.50;5.50;;;;;;;;5018236;28;11505;-79
2021/03/17 05:25:12;;;;;;;;;8.75;6.00;;;;;;;;5021872;28;11489;-74
2021/03/17 05:27:39;;;;;;;;;8.75;8.75;;;;;;;;5019377;28;11498;-78
2021/03/17 05:30:08;;;;;;;;;10.75;9.50;;;;;;;;5015429;28;11610;-75
2021/03/17 05:32:35;;;;;;;;;10.00;9.00;;;;;;;;5019949;28;11689;-74
2021/03/17 05:35:06;;;;;;;;;6.00;4.50;;;;;;;;5022480;28;11543;-73
2021/03/17 05:37:34;;;;;;;;;8.00;6.75;;;;;;;;5023096;28;11485;-75
2021/03/17 05:40:01;;;;;;;;;6.25;6.25;;;;;;;;5034010;28;11572;-80
2021/03/17 05:42:28;;;;;;;;;6.00;6.00;;;;;;;;5035158;28;11482;-74
2021/03/17 05:44:56;;;;;;;;;7.00;7.00;;;;;;;;5025505;28;12408;-74
2021/03/17 05:47:24;;;;;;;;;9.00;9.00;;;;;;;;5026370;28;11627;-78
2021/03/17 05:49:52;;;;;;;;;1.75;1.75;;;;;;;;5026355;28;11495;-74
2021/03/17 05:52:20;;;;;;;;;5.00;5.00;;;;;;;;5043099;28;12280;-73
2021/03/17 05:54:47;;;;;;;;;4.00;2.00;;;;;;;;5023432;28;11473;-76
2021/03/17 05:57:14;;;;;;;;;12.00;9.75;;;;;;;;5023027;28;11491;-76
2021/03/17 05:59:41;;;;;;;;;7.25;7.25;;;;;;;;5021131;28;11568;-76
2021/03/17 06:02:11;;;;;;;;;9.00;9.00;;;;;;;;5021778;28;11544;-78
2021/03/17 06:04:40;;;;;;;;;7.50;7.50;;;;;;;;5026173;28;11517;-74
2021/03/17 06:07:15;;;;;;;;;28.00;24.50;;;;;;;;5026131;28;11495;-74
2021/03/17 06:09:45;;;;;;;;;19.25;19.25;;;;;;;;5027357;28;11740;-78
2021/03/17 06:12:13;;;;;;;;;22.00;22.00;;;;;;;;5027586;28;11611;-79
2021/03/17 06:14:41;;;;;;;;;36.25;31.00;;;;;;;;5022990;28;11603;-76
2021/03/17 06:17:13;;;;;;;;;22.50;19.00;;;;;;;;5027034;28;11754;-80
2021/03/17 06:19:43;;;;;;;;;10.75;10.75;;;;;;;;5023775;28;11617;-77
2021/03/17 06:22:10;;;;;;;;;22.75;20.75;;;;;;;;5026853;28;11531;-77
2021/03/17 06:24:38;;;;;;;;;20.00;18.25;;;;;;;;5024850;28;11604;-74
2021/03/17 06:27:07;;;;;;;;;16.75;13.75;;;;;;;;5025061;28;11636;-73
2021/03/17 06:29:34;;;;;;;;;12.25;12.00;;;;;;;;5021553;28;11560;-77
2021/03/17 06:32:01;;;;;;;;;13.00;12.50;;;;;;;;5024194;28;11601;-78
2021/03/17 06:34:29;;;;;;;;;18.25;14.25;;;;;;;;5021874;28;11626;-75
2021/03/17 06:36:56;;;;;;;;;25.25;20.50;;;;;;;;5021069;28;11528;-76
2021/03/17 06:39:24;;;;;;;;;18.75;15.25;;;;;;;;5024839;28;11755;-75
2021/03/17 06:41:53;;;;;;;;;14.75;13.50;;;;;;;;5023072;28;11698;-75
2021/03/17 06:44:21;;;;;;;;;13.00;9.25;;;;;;;;5022431;28;11651;-76
2021/03/17 06:47:19;;;;;;;;;14.50;12.50;;;;;;;;5020859;28;11668;-76
2021/03/17 06:49:47;;;;;;;;;15.00;15.00;;;;;;;;4974598;28;11643;-76
2021/03/17 06:52:31;;;;;;;;;15.00;15.00;;;;;;;;5022480;28;11657;-76
2021/03/17 06:55:09;;;;;;;;;12.75;12.75;;;;;;;;5020097;28;11647;-76
2021/03/17 06:57:37;;;;;;;;;19.75;13.75;;;;;;;;5022745;28;11652;-76
2021/03/17 07:00:30;;;;;;;;;13.25;12.50;;;;;;;;5020247;28;11645;-76
2021/03/17 07:02:59;;;;;;;;;12.25;12.25;;;;;;;;5021034;28;11503;-76
2021/03/17 07:05:38;;;;;;;;;10.75;10.75;;;;;;;;5022109;28;12124;-77
2021/03/17 07:08:07;;;;;;;;;9.00;9.00;;;;;;;;5018672;28;11502;-76
2021/03/17 07:10:37;;;;;;;;;10.75;10.75;;;;;;;;5035912;28;11505;-75
2021/03/17 07:13:05;;;;;;;;;21.75;17.50;;;;;;;;5020578;28;11501;-76
2021/03/17 07:15:34;;;;;;;;;13.75;12.25;;;;;;;;5019911;28;11570;-76
2021/03/17 07:18:18;;;;;;;;;8.75;8.75;;;;;;;;5023519;28;11616;-76
2021/03/17 07:20:46;;;;;;;;;8.75;8.00;;;;;;;;5018706;28;11443;-76
2021/03/17 07:23:28;;;;;;;;;12.75;9.50;;;;;;;;5023937;28;11486;-72
2021/03/17 07:26:16;;;;;;;;;9.25;9.25;;;;;;;;5021352;28;11617;-71
2021/03/17 07:29:15;;;;;;;;;5.75;5.75;;;;;;;;5017773;28;11529;-70
2021/03/17 07:31:48;;;;;;;;;5.75;3.50;;;;;;;;5017210;28;11448;-71
2021/03/17 07:34:24;;;;;;;;;6.50;4.00;;;;;;;;5021512;28;11649;-71
2021/03/17 07:36:54;;;;;;;;;6.00;5.50;;;;;;;;5017738;28;11664;-69
2021/03/17 07:39:26;;;;;;;;;1.25;1.25;;;;;;;;5019587;28;11478;-70
2021/03/17 07:41:54;;;;;;;;;8.00;5.75;;;;;;;;5021454;28;11487;-72
2021/03/17 07:44:22;;;;;;;;;6.00;6.00;;;;;;;;5022220;28;12402;-72
2021/03/17 07:46:52;;;;;;;;;5.00;5.00;;;;;;;;5020456;28;11541;-71
2021/03/17 07:49:20;;;;;;;;;7.00;6.00;;;;;;;;5016522;28;11480;-72
2021/03/17 07:51:50;;;;;;;;;3.25;3.25;;;;;;;;5018180;28;11483;-71
2021/03/17 07:54:22;;;;;;;;;6.25;5.25;;;;;;;;5019953;28;11513;-71
2021/03/17 07:56:49;;;;;;;;;6.25;2.25;;;;;;;;5019877;28;11646;-72
2021/03/17 07:59:22;;;;;;;;;4.50;4.25;;;;;;;;5018753;28;11502;-70
2021/03/17 08:01:50;;;;;;;;;11.00;5.00;;;;;;;;5021860;28;11446;-71
2021/03/17 08:04:17;;;;;;;;;8.50;5.00;;;;;;;;5018586;28;11642;-71
2021/03/17 08:06:45;;;;;;;;;6.00;3.50;;;;;;;;5021893;28;11594;-71
2021/03/17 08:09:12;;;;;;;;;8.25;5.25;;;;;;;;5020794;28;12004;-70
2021/03/17 08:11:39;;;;;;;;;4.50;4.50;;;;;;;;5020005;28;11496;-71
2021/03/17 08:14:07;;;;;;;;;12.75;9.25;;;;;;;;5016520;28;11614;-71
2021/03/17 08:16:36;;;;;;;;;10.50;9.50;;;;;;;;5019997;28;12248;-72
2021/03/17 08:19:19;;;;;;;;;20.75;17.00;;;;;;;;5018875;28;11630;-72
2021/03/17 08:21:48;;;;;;;;;3.50;3.50;;;;;;;;5015827;28;11531;-70
2021/03/17 08:24:38;;;;;;;;;6.00;2.00;;;;;;;;5017679;28;11489;-70
2021/03/17 08:27:33;;;;;;;;;9.00;5.75;;;;;;;;5018034;28;11176;-70
2021/03/17 08:30:10;;;;;;;;;6.00;5.00;;;;;;;;5019417;28;11588;-70
2021/03/17 08:32:54;;;;;;;;;6.25;4.50;;;;;;;;5020477;28;11430;-71
2021/03/17 08:35:23;;;;;;;;;5.00;4.00;;;;;;;;5018273;28;11378;-70
2021/03/17 08:37:52;;;;;;;;;17.00;14.00;;;;;;;;5020699;28;11242;-70
2021/03/17 08:40:56;;;;;;;;;14.75;11.00;;;;;;;;5019808;28;11530;-69
2021/03/17 08:43:44;;;;;;;;;10.25;8.00;;;;;;;;5019733;28;11518;-70
2021/03/17 08:46:12;;;;;;;;;14.25;14.00;;;;;;;;5020401;28;11482;-70
2021/03/17 08:48:59;;;;;;;;;6.00;4.00;;;;;;;;5013980;28;11560;-71
2021/03/17 08:52:05;;;;;;;;;9.50;9.50;;;;;;;;5021020;28;11031;-70
2021/03/17 08:54:54;;;;;;;;;4.50;4.00;;;;;;;;5019930;28;11203;-71
2021/03/17 08:57:22;;;;;;;;;11.50;5.75;;;;;;;;5015997;28;11076;-70
2021/03/17 08:59:50;;;;;;;;;20.25;16.00;;;;;;;;5020620;28;11242;-70
2021/03/17 09:02:22;;;;;;;;;13.00;11.75;;;;;;;;5018283;28;11535;-69
2021/03/17 09:04:50;;;;;;;;;8.00;6.50;;;;;;;;5020210;28;11264;-70
2021/03/17 09:07:20;;;;;;;;;8.00;7.75;;;;;;;;5022359;28;11341;-69
2021/03/17 09:09:51;;;;;;;;;11.00;8.75;;;;;;;;5019358;28;11098;-70
2021/03/17 09:12:20;;;;;;;;;10.00;5.00;;;;;;;;5020118;28;11078;-70
2021/03/17 09:14:47;;;;;;;;;6.25;6.25;;;;;;;;5020794;28;11060;-70
2021/03/17 09:17:17;;;;;;;;;9.00;6.50;;;;;;;;5022059;28;11097;-70
2021/03/17 09:20:17;;;;;;;;;9.50;5.75;;;;;;;;5019045;28;11018;-69
2021/03/17 09:22:48;;;;;;;;;11.50;9.25;;;;;;;;5020713;28;11117;-70
2021/03/17 09:25:21;;;;;;;;;10.75;6.75;;;;;;;;5022377;28;11148;-69
2021/03/17 09:27:52;;;;;;;;;12.00;7.00;;;;;;;;5010585;28;10958;-70
2021/03/17 09:30:21;;;;;;;;;16.75;11.00;;;;;;;;5017105;28;11641;-70
2021/03/17 09:32:50;;;;;;;;;9.50;9.00;;;;;;;;5017056;28;10965;-69
2021/03/17 09:35:18;;;;;;;;;13.00;6.50;;;;;;;;5014711;28;10997;-71
2021/03/17 09:37:46;;;;;;;;;10.25;9.25;;;;;;;;5017873;28;10923;-70
2021/03/17 09:40:16;;;;;;;;;11.25;8.00;;;;;;;;5024553;28;11038;-70
2021/03/17 09:42:43;;;;;;;;;7.00;6.00;;;;;;;;5022550;28;11006;-70
2021/03/17 09:45:11;;;;;;;;;9.00;8.75;;;;;;;;5023899;28;10892;-70
2021/03/17 09:47:39;;;;;;;;;6.50;6.00;;;;;;;;5025370;28;11003;-69
2021/03/17 09:50:18;;;;;;;;;8.25;5.00;;;;;;;;5025807;28;10906;-70
2021/03/17 09:52:48;;;;;;;;;9.75;6.00;;;;;;;;5021373;28;10857;-71
2021/03/17 09:55:36;;;;;;;;;6.00;6.00;;;;;;;;5026068;28;11945;-70
2021/03/17 09:58:07;;;;;;;;;72.25;55.25;;;;;;;;5021723;28;10858;-71
2021/03/17 10:00:35;;;;;;;;;6.50;3.50;;;;;;;;5021860;28;11610;-70
2021/03/17 10:03:04;;;;;;;;;17.25;10.75;;;;;;;;5023914;28;10778;-71
2021/03/17 10:05:31;;;;;;;;;6.75;2.75;;;;;;;;5023384;28;10975;-71
2021/03/17 10:07:59;;;;;;;;;34.75;25.25;;;;;;;;5023950;28;10851;-71
2021/03/17 10:10:26;;;;;;;;;7.00;7.00;;;;;;;;5022295;28;11962;-71
2021/03/17 10:12:53;;;;;;;;;8.00;7.00;;;;;;;;5019203;28;10896;-68
2021/03/17 10:15:22;;;;;;;;;12.25;11.50;;;;;;;;5016411;28;10755;-70
2021/03/17 10:17:51;;;;;;;;;12.50;10.00;;;;;;;;5020601;28;10909;-70
2021/03/17 10:20:19;;;;;;;;;8.50;4.50;;;;;;;;5019787;28;10846;-70
2021/03/17 10:22:48;;;;;;;;;10.75;6.25;;;;;;;;5014720;28;10733;-70
2021/03/17 10:25:19;;;;;;;;;20.25;17.25;;;;;;;;5022195;28;11076;-71
2021/03/17 10:27:48;;;;;;;;;7.50;7.50;;;;;;;;5022752;28;11150;-69
2021/03/17 10:30:17;;;;;;;;;15.50;11.00;;;;;;;;5020409;28;11646;-69
2021/03/17 10:32:47;;;;;;;;;6.50;6.50;;;;;;;;5019523;28;10929;-69
2021/03/17 10:35:16;;;;;;;;;10.75;10.75;;;;;;;;5021401;28;10703;-70
2021/03/17 10:37:44;;;;;;;;;7.25;5.50;;;;;;;;5020269;28;11048;-71
2021/03/17 10:40:14;;;;;;;;;18.50;7.50;;;;;;;;5024121;28;11392;-71
2021/03/17 10:42:47;;;;;;;;;9.75;7.00;;;;;;;;5021663;28;10673;-70
2021/03/17 10:45:17;;;;;;;;;14.00;5.75;;;;;;;;5020338;28;10694;-71
2021/03/17 10:47:45;;;;;;;;;8.00;5.25;;;;;;;;5021084;28;10574;-71
2021/03/17 10:50:14;;;;;;;;;7.00;5.00;;;;;;;;5021233;28;10642;-71
2021/03/17 10:52:43;;;;;;;;;8.00;5.75;;;;;;;;5018875;28;10506;-72
2021/03/17 10:55:18;;;;;;;;;6.00;5.50;;;;;;;;5022076;28;10482;-71
2021/03/17 10:57:48;;;;;;;;;7.00;7.00;;;;;;;;5020847;28;10576;-72
2021/03/17 11:00:21;;;;;;;;;8.00;6.00;;;;;;;;5018805;28;10413;-71
2021/03/17 11:02:49;;;;;;;;;3.25;3.25;;;;;;;;5021691;28;10473;-72
2021/03/17 11:05:19;;;;;;;;;9.25;5.00;;;;;;;;5021651;28;10231;-71
2021/03/17 11:07:57;;;;;;;;;5.50;5.50;;;;;;;;5019711;28;10198;-72
2021/03/17 11:10:35;;;;;;;;;5.50;5.50;;;;;;;;5025364;28;10577;-71
2021/03/17 11:13:37;;;;;;;;;8.75;7.00;;;;;;;;5019416;28;10584;-71
2021/03/17 11:16:10;;;;;;;;;9.75;8.00;;;;;;;;5015281;28;10335;-71
2021/03/17 11:18:38;;;;;;;;;9.50;7.00;;;;;;;;5022685;28;10489;-71
2021/03/17 11:21:07;;;;;;;;;11.00;7.00;;;;;;;;5019410;28;10577;-72
2021/03/17 11:23:36;;;;;;;;;9.25;6.75;;;;;;;;5019522;28;11277;-72
2021/03/17 11:26:05;;;;;;;;;12.50;4.00;;;;;;;;5023536;28;10398;-70
2021/03/17 11:28:38;;;;;;;;;6.00;3.75;;;;;;;;5021574;28;10263;-72
2021/03/17 11:31:08;;;;;;;;;5.75;3.25;;;;;;;;5020551;28;10200;-71
2021/03/17 11:33:34;;;;;;;;;8.00;4.00;;;;;;;;5020555;28;10046;-72
2021/03/17 11:36:03;;;;;;;;;7.25;6.50;;;;;;;;5021221;28;10115;-71
2021/03/17 11:38:33;;;;;;;;;7.75;6.50;;;;;;;;5020802;28;9983;-72
2021/03/17 11:41:00;;;;;;;;;7.50;7.50;;;;;;;;5018987;28;10089;-72
2021/03/17 11:43:30;;;;;;;;;6.00;3.25;;;;;;;;5020521;28;9935;-72
2021/03/17 11:45:59;;;;;;;;;14.25;10.25;;;;;;;;5011761;28;9910;-71
2021/03/17 11:48:27;;;;;;;;;6.00;5.50;;;;;;;;5019161;28;11048;-71
2021/03/17 11:50:55;;;;;;;;;15.75;11.75;;;;;;;;5017940;28;10266;-72
2021/03/17 11:53:22;;;;;;;;;4.75;4.75;;;;;;;;5019000;28;10371;-71
2021/03/17 11:55:51;;;;;;;;;12.50;9.25;;;;;;;;5018483;28;10218;-72
2021/03/17 11:58:18;;;;;;;;;6.50;6.50;;;;;;;;5019007;28;10153;-71
2021/03/17 12:00:45;;;;;;;;;8.25;7.75;;;;;;;;5017590;28;10279;-72
2021/03/17 12:03:13;;;;;;;;;5.75;3.75;;;;;;;;5020427;28;10346;-71
2021/03/17 12:05:41;;;;;;;;;4.50;4.25;;;;;;;;5022850;28;10402;-70
2021/03/17 12:08:08;;;;;;;;;5.50;4.50;;;;;;;;5019297;28;10457;-71
2021/03/17 12:10:35;;;;;;;;;13.50;9.75;;;;;;;;5022543;28;10255;-71
2021/03/17 12:13:02;;;;;;;;;8.25;5.50;;;;;;;;5020239;28;10556;-71
2021/03/17 12:15:30;;;;;;;;;3.75;3.00;;;;;;;;5022163;28;10535;-71
2021/03/17 12:17:57;;;;;;;;;7.00;6.25;;;;;;;;5021205;28;10463;-71
2021/03/17 12:20:28;;;;;;;;;13.75;8.25;;;;;;;;5021139;28;10401;-71
2021/03/17 12:22:56;;;;;;;;;1.50;1.00;;;;;;;;5022129;28;10576;-72
2021/03/17 12:25:23;;;;;;;;;7.25;7.25;;;;;;;;5017517;28;10493;-71
2021/03/17 12:27:50;;;;;;;;;10.50;5.75;;;;;;;;5019846;28;10705;-71
2021/03/17 12:30:18;;;;;;;;;7.50;7.50;;;;;;;;5017968;28;10679;-72
2021/03/17 12:32:46;;;;;;;;;2.50;2.25;;;;;;;;5019839;28;11124;-72
2021/03/17 12:35:15;;;;;;;;;8.50;7.50;;;;;;;;5021161;28;10336;-73
2021/03/17 12:37:45;;;;;;;;;10.25;5.50;;;;;;;;5018570;28;11814;-73
2021/03/17 12:40:14;;;;;;;;;11.75;9.50;;;;;;;;5021712;28;10389;-72
2021/03/17 12:42:42;;;;;;;;;11.00;8.50;;;;;;;;5018390;28;10702;-71
2021/03/17 12:45:11;;;;;;;;;13.50;10.75;;;;;;;;5017950;28;10379;-72
2021/03/17 12:47:38;;;;;;;;;6.75;5.00;;;;;;;;5019845;28;10366;-72
2021/03/17 12:50:08;;;;;;;;;5.00;4.25;;;;;;;;5019302;28;10284;-73
2021/03/17 12:52:35;;;;;;;;;17.00;14.25;;;;;;;;5016976;28;10082;-74
2021/03/17 12:55:04;;;;;;;;;13.00;8.00;;;;;;;;5033537;28;10685;-72
2021/03/17 12:57:34;;;;;;;;;4.75;4.75;;;;;;;;5017527;28;10523;-73
2021/03/17 13:00:01;;;;;;;;;11.25;3.00;;;;;;;;5017462;28;10207;-72
2021/03/17 13:02:28;;;;;;;;;10.25;7.00;;;;;;;;5019073;28;10110;-72
2021/03/17 13:04:55;;;;;;;;;8.00;5.75;;;;;;;;5016929;28;10863;-73
2021/03/17 13:07:23;;;;;;;;;5.75;0.25;;;;;;;;5020301;28;11008;-73
2021/03/17 13:09:50;;;;;;;;;13.00;6.00;;;;;;;;5017339;28;11179;-72
2021/03/17 13:12:18;;;;;;;;;7.50;4.50;;;;;;;;5022051;28;11293;-72
2021/03/17 13:14:45;;;;;;;;;5.75;1.00;;;;;;;;5023277;28;11597;-71
2021/03/17 13:17:12;;;;;;;;;3.00;1.75;;;;;;;;5023121;28;11242;-74
2021/03/17 13:19:39;;;;;;;;;2.25;2.25;;;;;;;;5024829;28;12191;-75
2021/03/17 13:22:07;;;;;;;;;8.50;8.50;;;;;;;;5023221;28;11587;-74
2021/03/17 13:24:34;;;;;;;;;6.50;5.75;;;;;;;;5023928;28;11669;-74
2021/03/17 13:27:01;;;;;;;;;5.00;5.00;;;;;;;;5018672;28;11629;-74
2021/03/17 13:29:29;;;;;;;;;3.25;3.25;;;;;;;;5021777;28;11487;-73
2021/03/17 13:31:57;;;;;;;;;9.00;9.00;;;;;;;;5020540;28;11455;-73
2021/03/17 13:34:24;;;;;;;;;15.25;15.00;;;;;;;;5020860;28;11586;-73
2021/03/17 13:36:51;;;;;;;;;19.50;13.00;;;;;;;;5021391;28;11636;-73
2021/03/17 13:39:18;;;;;;;;;14.75;13.00;;;;;;;;5018461;28;12284;-74
2021/03/17 13:41:45;;;;;;;;;13.50;10.50;;;;;;;;5018711;28;12378;-72
2021/03/17 13:44:12;;;;;;;;;15.50;11.50;;;;;;;;5020083;28;12250;-72
2021/03/17 13:46:41;;;;;;;;;21.25;16.75;;;;;;;;5022994;28;11552;-72
2021/03/17 13:49:08;;;;;;;;;5.50;5.50;;;;;;;;5019141;28;12986;-72
2021/03/17 13:51:36;;;;;;;;;16.75;13.50;;;;;;;;5020322;28;11277;-71
2021/03/17 13:54:03;;;;;;;;;38.50;34.75;;;;;;;;5017754;28;11533;-72
2021/03/17 13:56:30;;;;;;;;;11.00;9.75;;;;;;;;5015050;28;11602;-72
2021/03/17 13:58:57;;;;;;;;;3.50;3.50;;;;;;;;5024998;28;12353;-73
2021/03/17 14:01:24;;;;;;;;;8.25;7.00;;;;;;;;5020620;28;11431;-72
2021/03/17 14:03:53;;;;;;;;;13.50;11.00;;;;;;;;5023127;28;11628;-72
2021/03/17 14:06:20;;;;;;;;;15.25;11.00;;;;;;;;5021619;28;11585;-73
2021/03/17 14:08:48;;;;;;;;;17.75;14.25;;;;;;;;5020673;28;11594;-74
2021/03/17 14:11:15;;;;;;;;;17.00;15.25;;;;;;;;5022656;28;12308;-74
2021/03/17 14:13:42;;;;;;;;;11.25;9.00;;;;;;;;5023305;28;11684;-74
2021/03/17 14:16:20;;;;;;;;;22.00;14.25;;;;;;;;5022464;28;11626;-73
2021/03/17 14:18:47;;;;;;;;;16.00;13.25;;;;;;;;5021883;28;11614;-73
2021/03/17 14:21:15;;;;;;;;;4.50;2.50;;;;;;;;5025109;28;11653;-72
2021/03/17 14:23:42;;;;;;;;;4.25;2.00;;;;;;;;5021196;28;12142;-73
2021/03/17 14:26:09;;;;;;;;;17.50;10.50;;;;;;;;5024557;28;11471;-74
2021/03/17 14:28:36;;;;;;;;;10.25;8.75;;;;;;;;5029358;28;11614;-74
2021/03/17 14:31:03;;;;;;;;;14.00;10.00;;;;;;;;5029804;28;11459;-70
2021/03/17 14:33:31;;;;;;;;;22.75;17.00;;;;;;;;5031460;28;11694;-72
2021/03/17 14:35:59;;;;;;;;;6.25;2.25;;;;;;;;5023996;28;11590;-75
2021/03/17 14:38:27;;;;;;;;;5.00;5.00;;;;;;;;5023376;28;11475;-74
2021/03/17 14:40:54;;;;;;;;;16.25;12.75;;;;;;;;5027494;28;11447;-75
2021/03/17 14:43:21;;;;;;;;;4.25;3.50;;;;;;;;5034144;28;12283;-74
2021/03/17 14:45:49;;;;;;;;;6.25;6.25;;;;;;;;5033264;28;11518;-70
2021/03/17 14:48:16;;;;;;;;;1.00;1.00;;;;;;;;5031539;28;11488;-75
2021/03/17 14:50:43;;;;;;;;;22.25;15.50;;;;;;;;5028667;28;12323;-74
2021/03/17 14:53:10;;;;;;;;;5.00;5.00;;;;;;;;5030469;28;11652;-75